createdAt,value
2023-01-19T00:01:04.642Z,3.70
2023-01-19T00:03:35.991Z,3.50
2023-01-19T00:06:08.927Z,3.60
2023-01-19T00:08:45.383Z,3.60
2023-01-19T00:11:18.955Z,3.60
2023-01-19T00:13:53.811Z,3.70
2023-01-19T00:16:25.496Z,3.60
2023-01-19T00:18:56.999Z,3.60
2023-01-19T00:21:28.188Z,3.60
2023-01-19T00:24:03.406Z,3.60
2023-01-19T00:26:40.701Z,3.60
2023-01-19T00:29:11.726Z,3.60
2023-01-19T00:31:42.675Z,3.60
2023-01-19T00:34:13.853Z,3.60
2023-01-19T00:36:45.034Z,3.50
2023-01-19T00:39:27.819Z,3.50
2023-01-19T00:42:13.310Z,3.50
2023-01-19T00:44:44.194Z,3.70
2023-01-19T00:47:14.998Z,3.50
2023-01-19T00:49:46.186Z,3.50
2023-01-19T00:52:16.800Z,3.50
2023-01-19T00:54:49.802Z,3.50
2023-01-19T00:57:23.664Z,3.50
2023-01-19T00:59:54.027Z,3.60
2023-01-19T01:02:24.585Z,3.50
2023-01-19T01:04:56.967Z,3.60
2023-01-19T01:07:27.755Z,3.40
2023-01-19T01:09:58.520Z,3.40
2023-01-19T01:12:31.609Z,3.40
2023-01-19T01:15:02.175Z,3.60
2023-01-19T01:17:33.898Z,3.50
2023-01-19T01:20:05.009Z,3.40
2023-01-19T01:22:35.503Z,3.40
2023-01-19T01:25:06.958Z,3.50
2023-01-19T01:27:40.296Z,3.40
2023-01-19T01:30:15.587Z,3.40
2023-01-19T01:32:46.898Z,3.40
2023-01-19T01:35:17.873Z,3.40
2023-01-19T01:37:49.609Z,3.40
2023-01-19T01:40:22.421Z,3.40
2023-01-19T01:42:55.356Z,3.40
2023-01-19T01:45:34.178Z,3.60
2023-01-19T01:48:08.855Z,3.40
2023-01-19T01:51:03.185Z,3.40
2023-01-19T01:53:35.128Z,3.40
2023-01-19T01:56:08.079Z,3.50
2023-01-19T01:58:41.770Z,3.40
2023-01-19T02:01:24.881Z,3.40
2023-01-19T02:04:00.503Z,3.40
2023-01-19T02:06:31.312Z,3.40
2023-01-19T02:09:19.119Z,3.50
2023-01-19T02:12:02.261Z,3.40
2023-01-19T02:14:37.421Z,3.50
2023-01-19T02:17:08.467Z,3.40
2023-01-19T02:19:46.671Z,3.50
2023-01-19T02:22:23.131Z,3.50
2023-01-19T02:24:56.506Z,3.40
2023-01-19T02:27:27.126Z,3.40
2023-01-19T02:29:57.993Z,3.50
2023-01-19T02:32:28.466Z,3.40
2023-01-19T02:34:59.000Z,3.40
2023-01-19T02:37:31.438Z,3.30
2023-01-19T02:40:07.395Z,3.30
2023-01-19T02:42:40.895Z,3.30
2023-01-19T02:45:12.990Z,3.40
2023-01-19T02:47:47.278Z,3.30
2023-01-19T02:50:41.965Z,3.40
2023-01-19T02:53:29.307Z,3.30
2023-01-19T02:56:16.021Z,3.30
2023-01-19T02:58:52.576Z,3.30
2023-01-19T03:01:29.813Z,3.40
2023-01-19T03:04:07.030Z,3.30
2023-01-19T03:06:46.262Z,3.40
2023-01-19T03:09:25.082Z,3.40
2023-01-19T03:12:04.819Z,3.40
2023-01-19T03:14:41.005Z,3.40
2023-01-19T03:17:13.667Z,3.40
2023-01-19T03:19:46.663Z,3.50
2023-01-19T03:22:21.368Z,3.40
2023-01-19T03:24:53.706Z,3.30
2023-01-19T03:27:29.911Z,3.40
2023-01-19T03:30:02.917Z,3.60
2023-01-19T03:32:37.046Z,3.50
2023-01-19T03:35:13.079Z,3.50
2023-01-19T03:37:47.086Z,3.50
2023-01-19T03:40:17.928Z,3.60
2023-01-19T03:42:52.456Z,3.50
2023-01-19T03:45:23.368Z,3.50
2023-01-19T03:47:54.343Z,3.50
2023-01-19T03:50:30.097Z,3.50
2023-01-19T03:53:05.125Z,3.60
2023-01-19T03:55:35.798Z,3.60
2023-01-19T03:58:09.067Z,3.50
2023-01-19T04:00:39.695Z,3.40
2023-01-19T04:03:15.355Z,3.50
2023-01-19T04:05:46.178Z,3.50
2023-01-19T04:08:16.816Z,3.60
2023-01-19T04:10:47.355Z,3.40
2023-01-19T04:13:20.219Z,3.50
2023-01-19T04:15:50.799Z,3.50
2023-01-19T04:18:21.083Z,3.40
2023-01-19T04:20:51.431Z,3.50
2023-01-19T04:23:21.771Z,3.60
2023-01-19T04:25:52.123Z,3.50
2023-01-19T04:28:25.081Z,3.40
2023-01-19T04:30:55.558Z,3.50
2023-01-19T04:33:26.419Z,3.50
2023-01-19T04:35:57.529Z,3.40
2023-01-19T04:38:28.540Z,3.40
2023-01-19T04:40:59.160Z,3.40
2023-01-19T04:43:32.238Z,3.50
2023-01-19T04:46:02.598Z,3.40
2023-01-19T04:48:32.869Z,3.50
2023-01-19T04:51:03.180Z,3.40
2023-01-19T04:53:33.454Z,3.30
2023-01-19T04:56:03.926Z,3.40
2023-01-19T04:58:36.934Z,3.50
2023-01-19T05:01:11.507Z,3.40
2023-01-19T05:03:41.892Z,3.30
2023-01-19T05:06:12.287Z,3.30
2023-01-19T05:08:44.600Z,3.40
2023-01-19T05:11:15.683Z,3.40
2023-01-19T05:13:50.840Z,3.30
2023-01-19T05:16:21.339Z,3.30
2023-01-19T05:18:52.667Z,3.20
2023-01-19T05:21:23.058Z,3.20
2023-01-19T05:23:53.343Z,3.20
2023-01-19T05:26:23.868Z,3.10
2023-01-19T05:28:56.916Z,3.20
2023-01-19T05:31:27.486Z,3.10
2023-01-19T05:33:57.873Z,3.10
2023-01-19T05:36:28.341Z,3.10
2023-01-19T05:38:58.757Z,3.10
2023-01-19T05:41:29.334Z,3.20
2023-01-19T05:44:02.241Z,3.10
2023-01-19T05:46:32.643Z,3.10
2023-01-19T05:49:05.276Z,3.10
2023-01-19T05:51:38.671Z,3.10
2023-01-19T05:54:10.214Z,3.00
2023-01-19T05:56:40.599Z,3.10
2023-01-19T05:59:13.841Z,3.00
2023-01-19T06:01:44.279Z,3.00
2023-01-19T06:04:14.579Z,3.00
2023-01-19T06:06:45.246Z,3.00
2023-01-19T06:09:15.528Z,3.00
2023-01-19T06:11:46.205Z,3.00
2023-01-19T06:14:19.162Z,3.00
2023-01-19T06:16:49.525Z,3.00
2023-01-19T06:19:19.833Z,3.00
2023-01-19T06:21:52.635Z,2.90
2023-01-19T06:24:23.300Z,3.00
2023-01-19T06:26:53.833Z,3.00
2023-01-19T06:29:29.786Z,3.00
2023-01-19T06:32:00.274Z,3.00
2023-01-19T06:34:30.616Z,2.90
2023-01-19T06:37:01.158Z,3.10
2023-01-19T06:39:31.486Z,3.10
2023-01-19T06:42:01.817Z,3.00
2023-01-19T06:44:34.702Z,3.00
2023-01-19T06:47:15.231Z,3.00
2023-01-19T06:49:46.690Z,2.90
2023-01-19T06:52:18.490Z,3.00
2023-01-19T06:54:49.823Z,3.10
2023-01-19T06:57:20.160Z,3.00
2023-01-19T06:59:53.177Z,3.00
2023-01-19T07:02:27.823Z,3.10
2023-01-19T07:04:58.786Z,3.00
2023-01-19T07:07:29.857Z,3.10
2023-01-19T07:10:00.333Z,3.00
2023-01-19T07:12:30.819Z,3.00
2023-01-19T07:15:03.868Z,3.00
2023-01-19T07:17:34.320Z,2.90
2023-01-19T07:20:04.761Z,3.00
2023-01-19T07:22:35.117Z,2.90
2023-01-19T07:25:05.485Z,2.90
2023-01-19T07:27:35.867Z,3.00
2023-01-19T07:30:10.323Z,3.10
2023-01-19T07:32:40.626Z,3.00
2023-01-19T07:35:11.934Z,3.00
2023-01-19T07:37:42.312Z,3.00
2023-01-19T07:40:13.986Z,2.90
2023-01-19T07:42:50.074Z,2.90
2023-01-19T07:45:24.811Z,2.90
2023-01-19T07:47:55.791Z,2.90
2023-01-19T07:50:27.966Z,3.00
2023-01-19T07:52:58.953Z,2.90
2023-01-19T07:55:29.654Z,2.90
2023-01-19T07:58:00.142Z,2.90
2023-01-19T08:00:33.229Z,3.00
2023-01-19T08:03:05.641Z,2.90
2023-01-19T08:05:36.505Z,3.00
2023-01-19T08:08:07.765Z,2.90
2023-01-19T08:10:38.271Z,2.90
2023-01-19T08:13:08.913Z,2.90
2023-01-19T08:15:41.958Z,2.90
2023-01-19T08:18:15.845Z,2.90
2023-01-19T08:20:46.238Z,2.90
2023-01-19T08:23:18.334Z,3.00
2023-01-19T08:25:49.185Z,3.00
2023-01-19T08:28:20.364Z,3.00
2023-01-19T08:30:54.353Z,3.10
2023-01-19T08:33:26.024Z,3.10
2023-01-19T08:35:57.203Z,3.10
2023-01-19T08:38:27.734Z,3.10
2023-01-19T08:41:01.052Z,3.10
2023-01-19T08:43:31.639Z,3.10
2023-01-19T08:46:04.892Z,3.10
2023-01-19T08:48:35.427Z,3.20
2023-01-19T08:51:05.852Z,3.10
2023-01-19T08:53:36.298Z,3.30
2023-01-19T08:56:12.318Z,3.20
2023-01-19T08:58:43.153Z,3.20
2023-01-19T09:01:17.395Z,3.10
2023-01-19T09:03:48.040Z,3.30
2023-01-19T09:06:20.120Z,3.20
2023-01-19T09:08:51.384Z,3.20
2023-01-19T09:11:21.865Z,3.20
2023-01-19T09:13:52.400Z,3.20
2023-01-19T09:16:27.450Z,3.20
2023-01-19T09:18:58.714Z,3.20
2023-01-19T09:21:29.429Z,3.20
2023-01-19T09:23:59.861Z,3.30
2023-01-19T09:26:32.906Z,3.20
2023-01-19T09:29:03.499Z,3.30
2023-01-19T09:31:36.669Z,3.30
2023-01-19T09:34:08.033Z,3.30
2023-01-19T09:36:40.096Z,3.30
2023-01-19T09:39:11.304Z,3.30
2023-01-19T09:41:45.116Z,3.40
2023-01-19T09:44:21.725Z,3.50
2023-01-19T09:46:54.801Z,3.50
2023-01-19T09:49:34.615Z,3.50
2023-01-19T09:52:05.396Z,3.50
2023-01-19T09:54:44.554Z,3.50
2023-01-19T09:57:15.676Z,3.50
2023-01-19T09:59:49.573Z,3.60
2023-01-19T10:02:36.056Z,3.60
2023-01-19T10:05:08.652Z,3.60
2023-01-19T10:08:03.795Z,3.70
2023-01-19T10:10:36.017Z,3.60
2023-01-19T10:13:28.014Z,3.70
2023-01-19T10:16:07.046Z,3.70
2023-01-19T10:18:48.069Z,3.80
2023-01-19T10:21:22.315Z,3.80
2023-01-19T10:23:55.702Z,3.80
2023-01-19T10:26:28.360Z,3.70
2023-01-19T10:29:04.566Z,3.80
2023-01-19T10:31:37.760Z,3.70
2023-01-19T10:34:20.964Z,3.70
2023-01-19T10:36:59.974Z,3.70
2023-01-19T10:39:30.434Z,3.70
2023-01-19T10:42:03.981Z,3.80
2023-01-19T10:44:41.016Z,3.80
2023-01-19T10:47:19.834Z,3.80
2023-01-19T10:49:53.119Z,3.80
2023-01-19T10:52:29.683Z,3.90
2023-01-19T10:55:00.524Z,3.80
2023-01-19T10:57:34.713Z,3.90
2023-01-19T11:00:05.513Z,3.90
2023-01-19T11:02:37.364Z,4.00
2023-01-19T11:05:29.127Z,4.00
2023-01-19T11:07:59.563Z,3.90
2023-01-19T11:10:31.845Z,4.00
2023-01-19T11:13:07.779Z,4.00
2023-01-19T11:15:44.182Z,4.00
2023-01-19T11:18:27.248Z,4.00
2023-01-19T11:21:02.958Z,3.90
2023-01-19T11:23:37.760Z,3.90
2023-01-19T11:26:09.260Z,4.00
2023-01-19T11:28:44.985Z,4.00
2023-01-19T11:31:23.524Z,4.00
2023-01-19T11:33:54.881Z,4.00
2023-01-19T11:36:29.692Z,4.10
2023-01-19T11:39:04.284Z,4.10
2023-01-19T11:41:37.373Z,4.20
2023-01-19T11:44:17.065Z,4.10
2023-01-19T11:46:50.197Z,4.20
2023-01-19T11:49:25.479Z,4.10
2023-01-19T11:52:05.298Z,4.10
2023-01-19T11:54:39.734Z,4.20
2023-01-19T11:57:17.248Z,4.30
2023-01-19T11:59:49.790Z,4.20
2023-01-19T12:02:30.422Z,4.40
2023-01-19T12:05:07.881Z,4.50
2023-01-19T12:07:41.797Z,4.40
2023-01-19T12:10:23.825Z,4.40
2023-01-19T12:12:55.589Z,4.50
2023-01-19T12:15:32.930Z,4.40
2023-01-19T12:18:05.844Z,4.40
2023-01-19T12:20:40.540Z,4.40
2023-01-19T12:23:22.101Z,4.40
2023-01-19T12:26:04.960Z,4.40
2023-01-19T12:28:37.917Z,4.30
2023-01-19T12:31:09.043Z,4.40
2023-01-19T12:33:41.627Z,4.50
2023-01-19T12:36:36.746Z,4.60
2023-01-19T12:39:19.135Z,4.60
2023-01-19T12:41:51.282Z,4.60
2023-01-19T12:44:28.192Z,4.60
2023-01-19T12:47:06.486Z,4.50
2023-01-19T12:49:43.974Z,4.60
2023-01-19T12:52:25.124Z,4.60
2023-01-19T12:55:03.171Z,4.60
2023-01-19T12:57:38.122Z,4.70
2023-01-19T13:00:33.296Z,4.70
2023-01-19T13:03:05.602Z,4.70
2023-01-19T13:06:00.005Z,4.70
2023-01-19T13:08:45.451Z,4.70
2023-01-19T13:11:21.031Z,4.70
2023-01-19T13:14:33.052Z,4.80
2023-01-19T13:17:23.966Z,4.80
2023-01-19T13:20:12.288Z,4.80
2023-01-19T13:22:55.372Z,4.80
2023-01-19T13:25:33.874Z,4.80
2023-01-19T13:28:12.194Z,4.80
2023-01-19T13:30:48.882Z,4.80
2023-01-19T13:33:23.118Z,4.90
2023-01-19T13:35:56.955Z,4.90
2023-01-19T13:38:29.127Z,4.90
2023-01-19T13:41:01.912Z,4.90
2023-01-19T13:43:40.496Z,5.00
2023-01-19T13:46:17.551Z,5.00
2023-01-19T13:48:58.049Z,4.90
2023-01-19T13:51:28.500Z,4.90
2023-01-19T13:54:00.031Z,4.90
2023-01-19T13:56:30.983Z,4.90
2023-01-19T13:59:10.479Z,4.90
2023-01-19T14:01:42.651Z,4.90
2023-01-19T14:04:29.171Z,5.00
2023-01-19T14:07:02.769Z,5.00
2023-01-19T14:09:33.281Z,4.90
2023-01-19T14:12:14.313Z,4.90
2023-01-19T14:14:49.848Z,4.90
2023-01-19T14:17:26.570Z,5.00
2023-01-19T14:19:58.180Z,5.00
2023-01-19T14:22:43.270Z,5.00
2023-01-19T14:25:32.321Z,5.00
2023-01-19T14:28:31.064Z,5.00
2023-01-19T14:31:06.255Z,5.00
2023-01-19T14:33:38.263Z,5.10
2023-01-19T14:36:15.134Z,5.00
2023-01-19T14:38:47.989Z,5.00
2023-01-19T14:41:27.677Z,5.00
2023-01-19T14:43:59.037Z,5.10
2023-01-19T14:46:32.231Z,5.00
2023-01-19T14:49:05.843Z,5.00
2023-01-19T14:51:36.485Z,5.10
2023-01-19T14:54:07.198Z,5.00
2023-01-19T14:56:37.599Z,5.10
2023-01-19T14:59:12.926Z,5.00
2023-01-19T15:01:45.940Z,5.10
2023-01-19T15:04:16.408Z,5.10
2023-01-19T15:06:47.373Z,5.10
2023-01-19T15:09:19.096Z,5.10
2023-01-19T15:11:51.674Z,5.10
2023-01-19T15:14:24.258Z,5.10
2023-01-19T15:16:57.341Z,5.00
2023-01-19T15:19:27.683Z,5.00
2023-01-19T15:21:57.996Z,5.10
2023-01-19T15:24:28.456Z,5.00
2023-01-19T15:27:02.068Z,5.00
2023-01-19T15:29:32.497Z,5.00
2023-01-19T15:32:05.690Z,5.00
2023-01-19T15:34:36.240Z,5.00
2023-01-19T15:37:06.794Z,5.00
2023-01-19T15:39:37.363Z,5.00
2023-01-19T15:42:07.688Z,5.10
2023-01-19T15:44:38.127Z,5.00
2023-01-19T15:47:12.134Z,5.10
2023-01-19T15:49:42.580Z,5.00
2023-01-19T15:52:13.100Z,5.10
2023-01-19T15:54:43.439Z,5.00
2023-01-19T15:57:14.054Z,5.00
2023-01-19T15:59:44.675Z,5.00
2023-01-19T16:02:17.859Z,5.00
2023-01-19T16:04:52.078Z,4.90
2023-01-19T16:07:22.481Z,4.80
2023-01-19T16:09:52.976Z,4.90
2023-01-19T16:12:23.457Z,4.80
2023-01-19T16:14:53.839Z,4.80
2023-01-19T16:17:26.823Z,4.70
2023-01-19T16:19:57.362Z,4.80
2023-01-19T16:22:27.749Z,4.70
2023-01-19T16:24:58.115Z,4.70
2023-01-19T16:27:29.350Z,4.60
2023-01-19T16:30:04.832Z,4.60
2023-01-19T16:32:38.623Z,4.70
2023-01-19T16:35:09.897Z,4.60
2023-01-19T16:37:40.228Z,4.70
2023-01-19T16:40:12.336Z,4.70
2023-01-19T16:42:43.151Z,4.60
2023-01-19T16:45:13.882Z,4.60
2023-01-19T16:47:50.707Z,4.60
2023-01-19T16:50:21.491Z,4.50
2023-01-19T16:52:52.297Z,4.60
2023-01-19T16:55:22.741Z,4.60
2023-01-19T16:57:53.095Z,4.50
2023-01-19T17:00:24.092Z,4.50
2023-01-19T17:02:57.142Z,4.50
2023-01-19T17:05:27.543Z,4.40
2023-01-19T17:07:57.887Z,4.60
2023-01-19T17:10:28.297Z,4.50
2023-01-19T17:13:00.014Z,4.50
2023-01-19T17:15:30.471Z,4.50
2023-01-19T17:18:03.463Z,4.40
2023-01-19T17:20:35.433Z,4.50
2023-01-19T17:23:05.909Z,4.50
2023-01-19T17:25:36.366Z,4.50
2023-01-19T17:28:06.956Z,4.40
2023-01-19T17:30:37.496Z,4.30
2023-01-19T17:33:10.677Z,4.40
2023-01-19T17:35:41.115Z,4.40
2023-01-19T17:38:11.461Z,4.40
2023-01-19T17:40:42.683Z,4.30
2023-01-19T17:43:12.990Z,4.30
2023-01-19T17:45:43.465Z,4.40
2023-01-19T17:48:17.696Z,4.30
2023-01-19T17:50:48.071Z,4.30
2023-01-19T17:53:18.392Z,4.30
2023-01-19T17:55:48.723Z,4.30
2023-01-19T17:58:19.070Z,4.20
2023-01-19T18:00:49.521Z,4.20
2023-01-19T18:03:22.447Z,4.20
2023-01-19T18:05:56.801Z,4.20
2023-01-19T18:08:27.221Z,4.20
2023-01-19T18:10:57.919Z,4.30
2023-01-19T18:13:28.801Z,4.30
2023-01-19T18:16:03.044Z,4.20
2023-01-19T18:18:36.412Z,4.20
2023-01-19T18:21:08.795Z,4.20
2023-01-19T18:23:39.931Z,4.10
2023-01-19T18:26:12.331Z,4.10
2023-01-19T18:28:42.954Z,4.10
2023-01-19T18:31:15.669Z,4.20
2023-01-19T18:33:49.746Z,4.10
2023-01-19T18:36:21.162Z,4.10
2023-01-19T18:38:51.513Z,4.00
2023-01-19T18:41:23.392Z,4.00
2023-01-19T18:43:55.298Z,4.00
2023-01-19T18:46:25.757Z,4.10
2023-01-19T18:48:58.784Z,4.00
2023-01-19T18:51:29.221Z,4.10
2023-01-19T18:54:00.254Z,4.00
2023-01-19T18:56:30.809Z,3.90
2023-01-19T18:59:01.238Z,4.00
2023-01-19T19:01:35.224Z,4.00
2023-01-19T19:04:08.757Z,3.90
2023-01-19T19:06:39.192Z,4.00
2023-01-19T19:09:09.507Z,3.90
2023-01-19T19:11:40.234Z,3.90
2023-01-19T19:14:10.557Z,3.80
2023-01-19T19:16:41.612Z,3.80
2023-01-19T19:19:15.550Z,3.80
2023-01-19T19:21:46.149Z,3.80
2023-01-19T19:24:16.468Z,3.80
2023-01-19T19:26:47.010Z,3.90
2023-01-19T19:29:17.450Z,3.80
2023-01-19T19:31:48.214Z,3.80
2023-01-19T19:34:21.173Z,3.80
2023-01-19T19:36:51.603Z,3.70
2023-01-19T19:39:21.923Z,3.70
2023-01-19T19:41:52.258Z,3.80
2023-01-19T19:44:22.591Z,3.70
2023-01-19T19:46:53.017Z,3.80
2023-01-19T19:49:27.269Z,3.80
2023-01-19T19:51:57.671Z,3.70
2023-01-19T19:54:28.100Z,3.80
2023-01-19T19:56:58.624Z,3.60
2023-01-19T19:59:28.957Z,3.70
2023-01-19T20:01:59.342Z,3.60
2023-01-19T20:04:32.311Z,3.80
2023-01-19T20:07:02.799Z,3.60
2023-01-19T20:09:33.147Z,3.60
2023-01-19T20:12:03.933Z,3.70
2023-01-19T20:14:34.448Z,3.60
2023-01-19T20:17:05.973Z,3.50
2023-01-19T20:19:38.861Z,3.60
2023-01-19T20:22:09.823Z,3.50
2023-01-19T20:24:40.300Z,3.50
2023-01-19T20:27:10.655Z,3.50
2023-01-19T20:29:41.083Z,3.50
2023-01-19T20:32:11.721Z,3.50
2023-01-19T20:34:44.719Z,3.50
2023-01-19T20:37:15.136Z,3.50
2023-01-19T20:39:45.584Z,3.50
2023-01-19T20:42:16.718Z,3.50
2023-01-19T20:44:47.246Z,3.60
2023-01-19T20:47:17.687Z,3.50
2023-01-19T20:49:50.782Z,3.40
2023-01-19T20:52:21.756Z,3.50
2023-01-19T20:54:52.353Z,3.40
2023-01-19T20:57:22.783Z,3.40
2023-01-19T20:59:53.349Z,3.50
2023-01-19T21:02:23.985Z,3.30
2023-01-19T21:04:57.040Z,3.40
2023-01-19T21:07:27.625Z,3.40
2023-01-19T21:09:57.904Z,3.40
2023-01-19T21:12:28.265Z,3.50
2023-01-19T21:14:58.743Z,3.40
2023-01-19T21:17:29.303Z,3.40
2023-01-19T21:20:02.188Z,3.40
2023-01-19T21:22:32.521Z,3.50
2023-01-19T21:25:02.867Z,3.40
2023-01-19T21:27:33.293Z,3.30
2023-01-19T21:30:03.809Z,3.40
2023-01-19T21:32:34.445Z,3.40
2023-01-19T21:35:08.195Z,3.50
2023-01-19T21:37:38.592Z,3.40
2023-01-19T21:40:10.799Z,3.60
2023-01-19T21:42:41.894Z,3.40
2023-01-19T21:45:12.958Z,3.40
2023-01-19T21:47:43.397Z,3.50
2023-01-19T21:50:16.772Z,3.60
2023-01-19T21:52:47.223Z,3.40
2023-01-19T21:55:17.705Z,3.40
2023-01-19T21:57:48.241Z,3.40
2023-01-19T22:00:19.630Z,3.30
2023-01-19T22:03:03.127Z,3.40
2023-01-19T22:05:37.775Z,3.40
2023-01-19T22:08:09.739Z,3.50
2023-01-19T22:10:40.492Z,3.40
2023-01-19T22:13:10.910Z,3.40
2023-01-19T22:15:41.237Z,3.50
2023-01-19T22:18:11.679Z,3.40
2023-01-19T22:20:44.769Z,3.40
2023-01-19T22:23:15.489Z,3.50
2023-01-19T22:25:45.856Z,3.40
2023-01-19T22:28:16.275Z,3.50
2023-01-19T22:30:46.687Z,3.60
2023-01-19T22:33:17.249Z,3.60
2023-01-19T22:35:50.145Z,3.40
2023-01-19T22:38:20.552Z,3.50
2023-01-19T22:40:50.904Z,3.40
2023-01-19T22:43:21.395Z,3.40
2023-01-19T22:45:51.813Z,3.50
2023-01-19T22:48:22.469Z,3.60
2023-01-19T22:50:59.039Z,3.60
2023-01-19T22:53:29.404Z,3.60
2023-01-19T22:55:59.830Z,3.60
2023-01-19T22:58:30.227Z,3.60
2023-01-19T23:01:07.151Z,3.60
2023-01-19T23:03:37.843Z,3.60
2023-01-19T23:06:12.881Z,3.60
2023-01-19T23:08:44.025Z,3.50
2023-01-19T23:11:16.545Z,3.50
2023-01-19T23:13:47.470Z,3.60
2023-01-19T23:16:18.301Z,3.50
2023-01-19T23:18:49.745Z,3.60
2023-01-19T23:21:24.365Z,3.50
2023-01-19T23:23:57.223Z,3.60
2023-01-19T23:26:28.920Z,3.60
2023-01-19T23:29:01.193Z,3.60
2023-01-19T23:31:33.218Z,3.60
2023-01-19T23:34:05.549Z,3.70
2023-01-19T23:36:42.337Z,3.60
2023-01-19T23:39:17.453Z,3.60
2023-01-19T23:41:49.947Z,3.60
2023-01-19T23:44:21.112Z,3.60
2023-01-19T23:46:51.506Z,3.60
2023-01-19T23:49:24.870Z,3.60
2023-01-19T23:52:00.369Z,3.60
2023-01-19T23:54:31.391Z,3.50
2023-01-19T23:57:02.244Z,3.60
2023-01-19T23:59:32.866Z,3.50
